Time;durP1;ratioP1;P1;durP2;ratioP2;P2;SDS_P1;SDS_P2;PMS_P1;PMS_P2;Temp;Humidity;BMP_temperature;BMP_pressure;BME280_temperature;BME280_humidity;BME280_pressure;Samples;Min_cycle;Max_cycle;Signal;HPM_P1;HPM_P2
2024/01/08 00:02:22;;;;;;;908.75;83.47;;;;;;;;;;4976654;28;20142;-81
2024/01/08 00:04:49;;;;;;;921.67;86.13;;;;;;;;;;4969996;28;20043;-81
2024/01/08 00:07:16;;;;;;;920.88;85.63;;;;;;;;;;4978668;28;20134;-81
2024/01/08 00:09:42;;;;;;;933.50;85.68;;;;;;;;;;4971785;28;20102;-81
2024/01/08 00:12:09;;;;;;;897.22;79.32;;;;;;;;;;4969912;28;20820;-81
2024/01/08 00:14:35;;;;;;;928.92;84.05;;;;;;;;;;4978542;28;20147;-81
2024/01/08 00:17:02;;;;;;;910.70;80.80;;;;;;;;;;4972211;28;20041;-81
2024/01/08 00:19:29;;;;;;;916.55;82.95;;;;;;;;;;4980479;28;20048;-81
2024/01/08 00:21:55;;;;;;;920.75;83.18;;;;;;;;;;4980066;28;20114;-81
2024/01/08 00:24:22;;;;;;;917.40;82.95;;;;;;;;;;4971007;28;20084;-81
2024/01/08 00:26:48;;;;;;;950.38;88.47;;;;;;;;;;4979589;28;20039;-81
2024/01/08 00:29:15;;;;;;;945.17;85.50;;;;;;;;;;4976128;28;20959;-81
2024/01/08 00:31:42;;;;;;;899.80;80.60;;;;;;;;;;4955589;28;20220;-83
2024/01/08 00:34:08;;;;;;;913.13;86.60;;;;;;;;;;4966394;28;21177;-83
2024/01/08 00:36:36;;;;;;;905.38;82.57;;;;;;;;;;4970876;28;20194;-81
2024/01/08 00:39:02;;;;;;;900.35;81.60;;;;;;;;;;4976823;28;21105;-81
2024/01/08 00:41:29;;;;;;;896.75;80.95;;;;;;;;;;4981019;28;21205;-80
2024/01/08 00:43:56;;;;;;;911.03;86.13;;;;;;;;;;4970848;28;20047;-81
2024/01/08 00:46:23;;;;;;;931.05;86.47;;;;;;;;;;4979427;28;20040;-82
2024/01/08 00:48:49;;;;;;;917.03;84.00;;;;;;;;;;4976891;28;20369;-82
2024/01/08 00:51:17;;;;;;;933.55;83.97;;;;;;;;;;4974803;28;20942;-82
2024/01/08 00:53:44;;;;;;;924.42;84.70;;;;;;;;;;4982867;28;20036;-82
2024/01/08 00:56:12;;;;;;;919.22;81.22;;;;;;;;;;4972533;28;20103;-83
2024/01/08 00:58:41;;;;;;;951.08;88.93;;;;;;;;;;4973692;28;20128;-82
2024/01/08 01:01:10;;;;;;;925.80;85.28;;;;;;;;;;4976541;28;20073;-83
2024/01/08 01:03:36;;;;;;;1039.00;98.85;;;;;;;;;;4969852;28;20143;-82
2024/01/08 01:06:03;;;;;;;925.40;83.07;;;;;;;;;;4979642;28;20055;-82
2024/01/08 01:08:30;;;;;;;937.78;84.57;;;;;;;;;;4969480;28;20040;-82
2024/01/08 01:10:57;;;;;;;933.45;86.43;;;;;;;;;;4970833;28;20036;-82
2024/01/08 01:13:24;;;;;;;935.67;88.57;;;;;;;;;;4979977;28;21030;-82
2024/01/08 01:15:50;;;;;;;939.30;85.22;;;;;;;;;;4972808;28;20036;-81
2024/01/08 01:18:17;;;;;;;915.92;83.43;;;;;;;;;;4976211;28;20044;-81
2024/01/08 01:20:44;;;;;;;975.90;90.00;;;;;;;;;;4981110;28;20040;-81
2024/01/08 01:23:11;;;;;;;942.03;87.43;;;;;;;;;;4969644;28;20985;-83
2024/01/08 01:25:38;;;;;;;935.55;89.30;;;;;;;;;;4977110;28;20040;-81
2024/01/08 01:28:05;;;;;;;904.70;79.38;;;;;;;;;;4972941;28;20099;-81
2024/01/08 01:30:31;;;;;;;923.50;85.20;;;;;;;;;;4971951;28;20072;-82
2024/01/08 01:32:58;;;;;;;935.13;86.43;;;;;;;;;;4977711;28;20048;-80
2024/01/08 01:35:25;;;;;;;969.08;89.57;;;;;;;;;;4969786;28;20063;-83
2024/01/08 01:37:51;;;;;;;944.42;88.03;;;;;;;;;;4972649;28;20202;-81
2024/01/08 01:40:18;;;;;;;950.28;90.65;;;;;;;;;;4976936;28;21187;-81
2024/01/08 01:42:44;;;;;;;981.45;89.18;;;;;;;;;;4970012;28;20133;-82
2024/01/08 01:45:11;;;;;;;938.75;85.38;;;;;;;;;;4974089;28;21116;-83
2024/01/08 01:47:37;;;;;;;673.67;57.47;;;;;;;;;;4991940;28;20036;-82
2024/01/08 01:50:05;;;;;;;690.65;57.42;;;;;;;;;;4999871;28;20228;-80
2024/01/08 01:52:32;;;;;;;963.55;85.20;;;;;;;;;;4992516;28;20040;-80
2024/01/08 01:54:59;;;;;;;954.17;87.97;;;;;;;;;;4974712;28;20045;-83
2024/01/08 01:57:25;;;;;;;949.33;86.30;;;;;;;;;;4975022;28;20044;-82
2024/01/08 01:59:52;;;;;;;952.17;91.00;;;;;;;;;;4979517;28;20043;-81
2024/01/08 02:02:19;;;;;;;888.05;84.93;;;;;;;;;;4975275;22;20124;-87
2024/01/08 02:04:45;;;;;;;936.83;90.07;;;;;;;;;;4935877;28;20064;-87
2024/01/08 02:07:13;;;;;;;733.92;67.88;;;;;;;;;;4933265;28;20045;-86
2024/01/08 02:09:39;;;;;;;731.92;69.20;;;;;;;;;;4919512;28;20573;-86
2024/01/08 02:12:06;;;;;;;756.28;69.53;;;;;;;;;;4928354;28;20910;-87
2024/01/08 02:14:33;;;;;;;716.67;63.47;;;;;;;;;;4937850;28;20068;-87
2024/01/08 02:16:59;;;;;;;728.83;66.38;;;;;;;;;;4923912;28;20998;-87
2024/01/08 02:19:26;;;;;;;714.28;63.75;;;;;;;;;;4934578;28;20046;-87
2024/01/08 02:21:53;;;;;;;673.15;60.30;;;;;;;;;;4927194;28;21304;-87
2024/01/08 02:24:20;;;;;;;593.22;54.00;;;;;;;;;;4945035;28;20025;-86
2024/01/08 02:26:46;;;;;;;678.35;57.90;;;;;;;;;;4940702;28;20095;-86
2024/01/08 02:29:14;;;;;;;594.85;52.35;;;;;;;;;;4950604;28;20029;-86
2024/01/08 02:31:41;;;;;;;566.08;49.40;;;;;;;;;;4960367;28;20048;-86
2024/01/08 02:34:07;;;;;;;608.80;52.20;;;;;;;;;;4949122;28;20034;-87
2024/01/08 02:36:34;;;;;;;594.42;49.72;;;;;;;;;;4953787;28;20034;-87
2024/01/08 02:39:00;;;;;;;615.85;51.03;;;;;;;;;;4956919;28;20042;-87
2024/01/08 02:41:27;;;;;;;592.63;49.78;;;;;;;;;;4946968;28;20037;-87
2024/01/08 02:43:54;;;;;;;679.08;59.28;;;;;;;;;;4954758;28;20037;-86
2024/01/08 02:46:21;;;;;;;672.92;58.58;;;;;;;;;;4943765;28;20099;-86
2024/01/08 02:48:47;;;;;;;672.17;60.20;;;;;;;;;;4947812;28;20038;-86
2024/01/08 02:51:14;;;;;;;720.05;65.68;;;;;;;;;;4943509;28;20048;-86
2024/01/08 02:53:41;;;;;;;672.58;62.35;;;;;;;;;;4921769;28;20038;-86
2024/01/08 02:56:17;;;;;;;705.83;65.82;;;;;;;;;;4942562;28;20069;-86
2024/01/08 02:58:43;;;;;;;714.97;61.80;;;;;;;;;;4937181;28;20049;-86
2024/01/08 03:01:10;;;;;;;724.38;63.58;;;;;;;;;;4935207;28;20054;-86
2024/01/08 03:03:36;;;;;;;730.40;63.13;;;;;;;;;;4940329;28;20181;-86
2024/01/08 03:06:03;;;;;;;726.78;66.25;;;;;;;;;;4934453;28;20141;-86
2024/01/08 03:08:30;;;;;;;750.53;68.72;;;;;;;;;;4927961;28;20555;-86
2024/01/08 03:10:57;;;;;;;775.80;70.50;;;;;;;;;;4935852;28;20906;-86
2024/01/08 03:13:23;;;;;;;794.30;74.47;;;;;;;;;;4923466;28;20053;-86
2024/01/08 03:15:50;;;;;;;790.78;74.50;;;;;;;;;;4927147;28;20922;-86
2024/01/08 03:18:16;;;;;;;817.60;76.63;;;;;;;;;;4930939;28;20041;-86
2024/01/08 03:20:43;;;;;;;829.33;75.28;;;;;;;;;;4922946;28;20045;-86
2024/01/08 03:23:10;;;;;;;808.83;72.63;;;;;;;;;;4926543;28;20037;-86
2024/01/08 03:25:36;;;;;;;831.63;77.25;;;;;;;;;;4924187;28;20042;-86
2024/01/08 03:28:03;;;;;;;848.58;81.20;;;;;;;;;;4921213;28;20053;-86
2024/01/08 03:30:30;;;;;;;796.67;74.10;;;;;;;;;;4928415;28;20042;-86
2024/01/08 03:32:56;;;;;;;829.15;75.22;;;;;;;;;;4921654;28;21009;-86
2024/01/08 03:35:24;;;;;;;827.38;79.43;;;;;;;;;;4927138;28;20057;-86
2024/01/08 03:37:51;;;;;;;885.00;80.90;;;;;;;;;;4931370;28;20044;-86
2024/01/08 03:40:17;;;;;;;729.33;66.22;;;;;;;;;;4923473;28;20144;-86
2024/01/08 03:42:45;;;;;;;847.30;79.68;;;;;;;;;;4925540;28;20045;-86
2024/01/08 03:45:11;;;;;;;821.40;74.40;;;;;;;;;;4909796;28;20154;-86
2024/01/08 03:47:39;;;;;;;822.00;75.13;;;;;;;;;;4920680;28;20038;-86
2024/01/08 03:50:07;;;;;;;853.17;77.28;;;;;;;;;;4930455;28;20034;-86
2024/01/08 03:52:34;;;;;;;815.65;77.47;;;;;;;;;;4921400;28;20034;-86
2024/01/08 03:55:00;;;;;;;819.88;74.53;;;;;;;;;;4928255;28;20040;-86
2024/01/08 03:57:27;;;;;;;735.22;65.78;;;;;;;;;;4934817;28;20037;-86
2024/01/08 03:59:54;;;;;;;857.08;78.50;;;;;;;;;;4924262;28;20123;-86
2024/01/08 04:02:20;;;;;;;908.55;83.20;;;;;;;;;;4934472;28;20052;-86
2024/01/08 04:04:48;;;;;;;941.75;86.75;;;;;;;;;;4943086;28;20581;-86
2024/01/08 04:07:14;;;;;;;822.15;76.00;;;;;;;;;;4933184;28;20038;-86
2024/01/08 04:09:41;;;;;;;693.95;61.42;;;;;;;;;;4945138;28;20224;-86
2024/01/08 04:12:08;;;;;;;572.83;50.85;;;;;;;;;;4949789;28;20148;-86
2024/01/08 04:14:35;;;;;;;587.42;50.72;;;;;;;;;;4955303;28;20041;-86
2024/01/08 04:17:04;;;;;;;566.03;48.90;;;;;;;;;;4960113;28;20042;-86
2024/01/08 04:19:31;;;;;;;629.90;53.72;;;;;;;;;;4930590;28;21087;-86
2024/01/08 04:21:57;;;;;;;637.70;56.88;;;;;;;;;;4951476;28;20083;-86
2024/01/08 04:24:24;;;;;;;704.00;62.60;;;;;;;;;;4948164;28;20069;-86
2024/01/08 04:26:51;;;;;;;757.28;70.10;;;;;;;;;;4940506;28;20123;-86
2024/01/08 04:29:17;;;;;;;767.65;72.13;;;;;;;;;;4941194;28;20040;-86
2024/01/08 04:31:44;;;;;;;783.55;70.78;;;;;;;;;;4933091;28;20797;-86
2024/01/08 04:34:11;;;;;;;808.85;74.63;;;;;;;;;;4930505;28;20224;-86
2024/01/08 04:36:44;;;;;;;797.40;72.10;;;;;;;;;;4917904;28;21113;-86
2024/01/08 04:39:11;;;;;;;830.05;76.28;;;;;;;;;;4937076;28;20052;-86
2024/01/08 04:41:38;;;;;;;829.15;78.93;;;;;;;;;;4928049;28;20033;-87
2024/01/08 04:44:07;;;;;;;821.20;73.60;;;;;;;;;;4927138;28;20034;-86
2024/01/08 04:46:35;;;;;;;803.08;72.43;;;;;;;;;;4925875;28;20044;-86
2024/01/08 04:49:02;;;;;;;860.53;77.78;;;;;;;;;;4929743;28;20551;-86
2024/01/08 04:51:30;;;;;;;837.30;76.68;;;;;;;;;;4912701;28;20341;-86
2024/01/08 04:53:56;;;;;;;820.05;76.40;;;;;;;;;;4927548;28;20033;-86
2024/01/08 04:56:24;;;;;;;818.60;75.18;;;;;;;;;;4931907;28;20052;-86
2024/01/08 04:58:51;;;;;;;818.05;74.43;;;;;;;;;;4922824;28;20038;-87
2024/01/08 05:01:18;;;;;;;807.47;74.78;;;;;;;;;;4929500;28;20164;-86
2024/01/08 05:03:45;;;;;;;824.22;77.30;;;;;;;;;;4928237;28;20623;-86
2024/01/08 05:06:12;;;;;;;796.45;75.93;;;;;;;;;;4907404;28;20037;-86
2024/01/08 05:08:39;;;;;;;813.08;75.78;;;;;;;;;;4931104;28;20037;-86
2024/01/08 05:11:06;;;;;;;827.70;76.40;;;;;;;;;;4910259;28;21086;-87
2024/01/08 05:13:33;;;;;;;838.30;77.03;;;;;;;;;;4926337;28;20048;-86
2024/01/08 05:16:00;;;;;;;933.95;87.90;;;;;;;;;;4926376;28;21085;-87
2024/01/08 05:18:27;;;;;;;840.30;76.65;;;;;;;;;;4922052;28;20041;-86
2024/01/08 05:20:54;;;;;;;887.47;78.85;;;;;;;;;;4906434;28;20042;-87
2024/01/08 05:23:20;;;;;;;918.40;87.32;;;;;;;;;;4933668;28;20048;-87
2024/01/08 05:25:47;;;;;;;849.90;78.72;;;;;;;;;;4907485;28;20139;-87
2024/01/08 05:28:14;;;;;;;861.42;79.00;;;;;;;;;;4929585;28;20309;-87
2024/01/08 05:30:40;;;;;;;884.45;84.15;;;;;;;;;;4921320;28;20066;-86
2024/01/08 05:33:07;;;;;;;850.58;77.10;;;;;;;;;;4925613;28;20124;-86
2024/01/08 05:35:35;;;;;;;801.10;73.85;;;;;;;;;;4935006;28;20045;-87
2024/01/08 05:38:02;;;;;;;876.55;81.57;;;;;;;;;;4904929;28;21205;-86
2024/01/08 05:40:28;;;;;;;854.08;82.13;;;;;;;;;;4927530;28;20046;-87
2024/01/08 05:42:55;;;;;;;888.20;81.03;;;;;;;;;;4938007;28;20042;-87
2024/01/08 05:45:23;;;;;;;902.63;82.50;;;;;;;;;;4924269;28;20067;-86
2024/01/08 05:47:50;;;;;;;841.85;76.82;;;;;;;;;;4928242;28;20045;-87
2024/01/08 05:50:17;;;;;;;668.35;59.60;;;;;;;;;;4931706;28;20061;-87
2024/01/08 05:52:44;;;;;;;869.25;75.97;;;;;;;;;;4937151;28;20204;-87
2024/01/08 05:55:14;;;;;;;860.90;79.30;;;;;;;;;;4933261;28;20061;-87
2024/01/08 05:57:41;;;;;;;818.15;72.93;;;;;;;;;;4925932;28;20860;-87
2024/01/08 06:00:10;;;;;;;887.25;82.38;;;;;;;;;;4931659;28;20929;-87
2024/01/08 06:02:37;;;;;;;854.60;77.18;;;;;;;;;;4931177;28;20053;-87
2024/01/08 06:05:04;;;;;;;850.90;77.57;;;;;;;;;;4928656;28;21082;-87
2024/01/08 06:07:31;;;;;;;829.00;74.50;;;;;;;;;;4928573;28;20109;-87
2024/01/08 06:09:58;;;;;;;841.58;78.53;;;;;;;;;;4909361;28;20042;-87
2024/01/08 06:12:25;;;;;;;814.17;72.45;;;;;;;;;;4929184;28;20033;-87
2024/01/08 06:14:51;;;;;;;820.75;74.07;;;;;;;;;;4934818;28;20041;-86
2024/01/08 06:17:18;;;;;;;878.67;81.85;;;;;;;;;;4926328;28;20052;-87
2024/01/08 06:19:45;;;;;;;763.70;70.03;;;;;;;;;;4939808;28;20872;-86
2024/01/08 06:22:11;;;;;;;790.05;72.68;;;;;;;;;;4935038;28;21051;-86
2024/01/08 06:24:38;;;;;;;841.13;80.00;;;;;;;;;;4923348;28;20100;-86
2024/01/08 06:27:06;;;;;;;788.97;72.55;;;;;;;;;;4931829;28;20140;-86
2024/01/08 06:29:32;;;;;;;515.55;43.20;;;;;;;;;;4943107;28;20079;-89
2024/01/08 06:31:59;;;;;;;875.53;82.05;;;;;;;;;;4927349;28;20144;-84
2024/01/08 06:34:26;;;;;;;812.78;75.13;;;;;;;;;;4941247;28;20040;-84
2024/01/08 06:36:53;;;;;;;946.97;90.65;;;;;;;;;;4922078;28;20049;-83
2024/01/08 06:39:20;;;;;;;896.83;83.28;;;;;;;;;;4920268;28;20551;-83
2024/01/08 06:41:47;;;;;;;761.55;68.30;;;;;;;;;;4937547;28;20038;-84
2024/01/08 06:44:13;;;;;;;660.55;59.28;;;;;;;;;;4940908;28;20382;-84
2024/01/08 06:46:40;;;;;;;653.75;56.80;;;;;;;;;;4945369;28;20046;-84
2024/01/08 06:49:08;;;;;;;691.70;60.30;;;;;;;;;;4943128;28;20127;-84
2024/01/08 06:51:42;;;;;;;765.58;69.13;;;;;;;;;;4938155;28;20049;-84
2024/01/08 06:54:09;;;;;;;790.67;71.47;;;;;;;;;;4940775;28;20273;-84
2024/01/08 06:56:36;;;;;;;798.45;74.07;;;;;;;;;;4927374;28;20072;-84
2024/01/08 06:59:03;;;;;;;838.47;78.28;;;;;;;;;;4927453;28;20052;-84
2024/01/08 07:01:31;;;;;;;855.50;77.55;;;;;;;;;;4933705;28;20946;-86
2024/01/08 07:03:57;;;;;;;893.22;85.47;;;;;;;;;;4918206;28;20130;-84
2024/01/08 07:06:24;;;;;;;881.92;80.85;;;;;;;;;;4922339;28;20048;-84
2024/01/08 07:08:52;;;;;;;865.92;79.15;;;;;;;;;;4919121;28;20120;-84
2024/01/08 07:11:23;;;;;;;889.72;84.50;;;;;;;;;;4917267;28;20046;-84
2024/01/08 07:16:11;;;;;;;890.28;82.05;;;;;;;;;;4978422;27;20771;-85
2024/01/08 07:18:38;;;;;;;883.83;83.93;;;;;;;;;;4984357;28;20389;-85
2024/01/08 07:21:05;;;;;;;869.28;86.82;;;;;;;;;;4985403;28;20876;-85
2024/01/08 07:23:32;;;;;;;861.58;80.03;;;;;;;;;;4972063;28;20302;-85
2024/01/08 07:25:58;;;;;;;874.05;80.38;;;;;;;;;;4974497;28;20965;-85
2024/01/08 07:28:26;;;;;;;873.72;81.22;;;;;;;;;;4973038;28;20041;-85
2024/01/08 07:30:53;;;;;;;887.45;82.78;;;;;;;;;;4969769;28;20032;-85
2024/01/08 07:33:21;;;;;;;874.67;84.07;;;;;;;;;;4976711;28;20040;-85
2024/01/08 07:35:49;;;;;;;865.55;79.10;;;;;;;;;;4962298;28;20903;-85
2024/01/08 07:38:16;;;;;;;883.40;81.35;;;;;;;;;;4971776;28;20033;-86
2024/01/08 07:40:43;;;;;;;861.90;78.63;;;;;;;;;;4955111;28;20041;-85
2024/01/08 07:43:10;;;;;;;852.03;80.07;;;;;;;;;;4952337;28;20109;-84
2024/01/08 07:45:36;;;;;;;778.47;69.10;;;;;;;;;;4978492;28;20202;-84
2024/01/08 07:48:03;;;;;;;883.10;83.78;;;;;;;;;;4983540;28;20929;-85
2024/01/08 07:50:29;;;;;;;831.10;80.35;;;;;;;;;;4973288;28;20039;-85
2024/01/08 07:52:57;;;;;;;846.47;80.53;;;;;;;;;;4985335;28;20051;-85
2024/01/08 07:55:23;;;;;;;861.15;78.88;;;;;;;;;;4955894;28;20037;-84
2024/01/08 07:57:50;;;;;;;839.45;82.13;;;;;;;;;;4976142;28;21283;-84
2024/01/08 08:00:17;;;;;;;868.22;85.10;;;;;;;;;;4980243;28;21361;-84
2024/01/08 08:02:43;;;;;;;865.72;84.50;;;;;;;;;;4968384;28;20037;-84
2024/01/08 08:05:10;;;;;;;845.05;82.00;;;;;;;;;;4975947;28;20048;-84
2024/01/08 08:07:38;;;;;;;856.80;83.10;;;;;;;;;;4977863;28;20047;-85
2024/01/08 08:10:05;;;;;;;907.75;88.13;;;;;;;;;;4968886;28;20055;-85
2024/01/08 08:12:32;;;;;;;870.22;85.03;;;;;;;;;;4980091;28;20139;-84
2024/01/08 08:14:59;;;;;;;842.25;79.15;;;;;;;;;;4970572;28;21029;-84
2024/01/08 08:17:26;;;;;;;847.22;80.95;;;;;;;;;;4972193;28;20051;-84
2024/01/08 08:19:53;;;;;;;869.65;82.88;;;;;;;;;;4975583;28;20154;-84
2024/01/08 08:22:20;;;;;;;828.90;78.60;;;;;;;;;;4969275;28;20114;-84
2024/01/08 08:24:47;;;;;;;847.30;77.63;;;;;;;;;;4974776;28;20872;-84
2024/01/08 08:27:14;;;;;;;852.42;81.00;;;;;;;;;;4967635;28;20301;-84
2024/01/08 08:29:44;;;;;;;919.75;86.70;;;;;;;;;;4963555;28;20052;-84
2024/01/08 08:32:11;;;;;;;942.47;91.25;;;;;;;;;;4976665;28;20452;-85
2024/01/08 08:34:41;;;;;;;962.22;92.30;;;;;;;;;;4992013;28;20059;-84
2024/01/08 08:37:08;;;;;;;874.58;83.25;;;;;;;;;;4989959;28;20049;-85
2024/01/08 08:39:35;;;;;;;840.22;80.70;;;;;;;;;;4992590;28;20044;-84
2024/01/08 08:42:03;;;;;;;813.05;75.78;;;;;;;;;;4961472;28;20404;-84
2024/01/08 08:44:29;;;;;;;733.25;67.45;;;;;;;;;;4977252;28;20085;-84
2024/01/08 08:46:58;;;;;;;745.67;69.53;;;;;;;;;;4963576;28;20040;-84
2024/01/08 08:49:25;;;;;;;731.85;65.65;;;;;;;;;;4971974;28;20091;-84
2024/01/08 08:51:56;;;;;;;679.35;63.53;;;;;;;;;;4990734;28;20044;-84
2024/01/08 08:54:23;;;;;;;677.53;61.33;;;;;;;;;;4984240;28;20049;-84
2024/01/08 08:56:49;;;;;;;566.63;49.33;;;;;;;;;;4988273;28;20072;-84
2024/01/08 08:59:16;;;;;;;684.97;62.05;;;;;;;;;;4999372;28;20102;-84
2024/01/08 09:01:43;;;;;;;607.10;54.80;;;;;;;;;;4979852;28;20111;-84
2024/01/08 09:04:10;;;;;;;589.45;56.35;;;;;;;;;;4994039;28;20039;-84
2024/01/08 09:06:38;;;;;;;742.13;69.05;;;;;;;;;;4994289;28;20040;-84
2024/01/08 09:09:08;;;;;;;672.55;62.13;;;;;;;;;;5003016;28;20050;-84
2024/01/08 09:11:37;;;;;;;661.38;61.17;;;;;;;;;;4996787;28;20040;-84
2024/01/08 09:14:05;;;;;;;475.25;39.45;;;;;;;;;;4999699;28;20045;-85
2024/01/08 09:16:32;;;;;;;480.45;40.40;;;;;;;;;;5009512;28;20097;-84
2024/01/08 09:18:58;;;;;;;414.48;33.97;;;;;;;;;;5013691;28;20183;-84
2024/01/08 09:21:25;;;;;;;477.05;42.28;;;;;;;;;;5005099;28;21004;-84
2024/01/08 09:23:52;;;;;;;560.60;50.03;;;;;;;;;;4997426;28;20143;-84
2024/01/08 09:26:19;;;;;;;607.60;55.58;;;;;;;;;;4994043;28;20033;-84
2024/01/08 09:28:49;;;;;;;691.20;60.67;;;;;;;;;;4976186;28;20037;-84
2024/01/08 09:31:16;;;;;;;710.45;63.42;;;;;;;;;;4977553;28;20033;-84
2024/01/08 09:33:43;;;;;;;697.70;66.18;;;;;;;;;;4977684;28;20202;-84
2024/01/08 09:36:10;;;;;;;751.08;67.47;;;;;;;;;;4967155;28;20036;-84
2024/01/08 09:38:36;;;;;;;765.75;72.95;;;;;;;;;;4976975;28;20044;-84
2024/01/08 09:41:04;;;;;;;762.55;68.50;;;;;;;;;;4963827;28;20045;-84
2024/01/08 09:43:46;;;;;;;781.50;74.57;;;;;;;;;;4967992;28;20064;-84
2024/01/08 09:46:14;;;;;;;806.80;76.25;;;;;;;;;;4966141;28;21022;-84
2024/01/08 09:48:43;;;;;;;804.38;77.57;;;;;;;;;;4956232;28;20107;-84
2024/01/08 09:51:09;;;;;;;818.85;75.68;;;;;;;;;;4964762;28;20188;-84
2024/01/08 09:53:36;;;;;;;842.15;80.97;;;;;;;;;;4959390;28;20033;-83
2024/01/08 09:56:03;;;;;;;837.97;78.32;;;;;;;;;;4956024;28;20885;-84
2024/01/08 09:58:30;;;;;;;868.83;83.60;;;;;;;;;;4945618;28;20032;-84
2024/01/08 10:00:57;;;;;;;827.80;76.53;;;;;;;;;;4955285;28;20136;-84
2024/01/08 10:03:26;;;;;;;874.90;84.32;;;;;;;;;;4953580;28;20955;-84
2024/01/08 10:05:53;;;;;;;869.53;84.22;;;;;;;;;;4958127;28;20037;-84
2024/01/08 10:08:20;;;;;;;846.90;80.45;;;;;;;;;;4953031;28;20040;-84
2024/01/08 10:10:47;;;;;;;874.33;86.68;;;;;;;;;;4954044;28;20517;-84
2024/01/08 10:13:14;;;;;;;876.92;83.47;;;;;;;;;;4953614;28;20041;-84
2024/01/08 10:15:45;;;;;;;900.20;82.88;;;;;;;;;;4950040;28;21278;-84
2024/01/08 10:18:14;;;;;;;902.85;87.57;;;;;;;;;;4959948;28;20055;-83
2024/01/08 10:20:41;;;;;;;893.53;87.80;;;;;;;;;;4947520;28;20851;-84
2024/01/08 10:23:09;;;;;;;869.85;83.38;;;;;;;;;;4955125;28;20065;-84
2024/01/08 10:25:37;;;;;;;844.72;80.78;;;;;;;;;;4956010;28;20029;-84
2024/01/08 10:28:08;;;;;;;902.13;82.88;;;;;;;;;;4931042;28;21148;-84
2024/01/08 10:30:34;;;;;;;861.17;81.15;;;;;;;;;;4955643;28;20032;-84
2024/01/08 10:33:01;;;;;;;892.33;83.03;;;;;;;;;;4952282;28;20041;-83
2024/01/08 10:35:31;;;;;;;858.65;81.13;;;;;;;;;;4935741;28;20907;-84
2024/01/08 10:37:59;;;;;;;877.33;86.13;;;;;;;;;;4938780;28;20060;-84
2024/01/08 10:40:33;;;;;;;872.05;88.18;;;;;;;;;;4932543;28;20539;-84
2024/01/08 10:43:00;;;;;;;849.85;81.80;;;;;;;;;;4939573;28;20049;-84
2024/01/08 10:45:27;;;;;;;894.30;83.78;;;;;;;;;;4958650;28;20043;-84
2024/01/08 10:48:03;;;;;;;871.10;83.15;;;;;;;;;;4916859;28;21213;-84
2024/01/08 10:50:30;;;;;;;848.58;78.97;;;;;;;;;;4957832;28;20040;-83
2024/01/08 10:52:57;;;;;;;841.50;81.85;;;;;;;;;;4952072;28;20036;-84
2024/01/08 10:55:24;;;;;;;844.60;77.50;;;;;;;;;;4954000;28;20133;-83
2024/01/08 10:57:58;;;;;;;870.55;79.97;;;;;;;;;;4959060;28;20996;-84
2024/01/08 11:00:27;;;;;;;866.53;83.47;;;;;;;;;;4944485;28;20033;-84
2024/01/08 11:02:54;;;;;;;856.00;83.45;;;;;;;;;;4955831;28;20132;-84
2024/01/08 11:05:21;;;;;;;896.90;88.30;;;;;;;;;;4937660;28;20882;-84
2024/01/08 11:07:50;;;;;;;855.45;82.20;;;;;;;;;;4945806;28;20090;-83
2024/01/08 11:10:18;;;;;;;866.63;83.15;;;;;;;;;;4956302;28;20101;-84
2024/01/08 11:12:55;;;;;;;889.05;84.63;;;;;;;;;;4940969;28;20048;-84
2024/01/08 11:15:26;;;;;;;885.83;81.90;;;;;;;;;;4948710;28;20113;-84
2024/01/08 11:17:53;;;;;;;874.55;81.88;;;;;;;;;;4941085;28;20060;-84
2024/01/08 11:20:33;;;;;;;806.95;78.20;;;;;;;;;;4939460;28;20094;-84
2024/01/08 11:23:26;;;;;;;870.53;84.30;;;;;;;;;;4944499;28;20053;-84
2024/01/08 11:25:53;;;;;;;848.85;80.53;;;;;;;;;;4946705;28;20052;-84
2024/01/08 11:28:20;;;;;;;841.13;77.82;;;;;;;;;;4947635;28;20112;-84
2024/01/08 11:30:55;;;;;;;867.75;81.13;;;;;;;;;;4945347;28;20044;-83
2024/01/08 11:33:30;;;;;;;854.13;81.63;;;;;;;;;;4945369;28;20274;-83
2024/01/08 11:35:59;;;;;;;794.55;73.18;;;;;;;;;;4954804;28;21295;-84
2024/01/08 11:38:29;;;;;;;850.60;80.40;;;;;;;;;;4947731;28;20037;-84
2024/01/08 11:40:56;;;;;;;875.17;85.13;;;;;;;;;;4950162;28;20045;-84
2024/01/08 11:43:23;;;;;;;924.58;91.22;;;;;;;;;;4954914;28;20368;-84
2024/01/08 11:45:49;;;;;;;822.53;80.20;;;;;;;;;;4961346;28;20099;-84
2024/01/08 11:48:16;;;;;;;709.50;64.65;;;;;;;;;;4966440;28;20061;-84
2024/01/08 11:50:45;;;;;;;665.28;59.28;;;;;;;;;;4979277;28;20562;-84
2024/01/08 11:53:13;;;;;;;669.58;59.38;;;;;;;;;;4962712;28;20203;-84
2024/01/08 11:55:39;;;;;;;690.13;65.20;;;;;;;;;;4979075;28;20065;-84
2024/01/08 11:58:07;;;;;;;724.63;68.88;;;;;;;;;;4965631;28;20033;-84
2024/01/08 12:00:34;;;;;;;691.55;64.28;;;;;;;;;;4975443;28;20047;-84
2024/01/08 12:03:02;;;;;;;763.90;71.00;;;;;;;;;;4978999;28;20033;-84
2024/01/08 12:05:29;;;;;;;752.53;73.35;;;;;;;;;;4972966;28;20040;-84
2024/01/08 12:07:56;;;;;;;731.38;66.45;;;;;;;;;;4973070;28;20033;-84
2024/01/08 12:10:23;;;;;;;642.17;61.13;;;;;;;;;;4977655;28;20080;-84
2024/01/08 12:12:49;;;;;;;777.20;71.32;;;;;;;;;;4964313;28;21152;-84
2024/01/08 12:15:17;;;;;;;841.25;79.38;;;;;;;;;;4949753;28;21109;-84
2024/01/08 12:17:44;;;;;;;853.45;82.25;;;;;;;;;;4945865;28;20041;-84
2024/01/08 12:21:16;;;;;;;;;;;;;;;;;;;;;
2024/01/08 12:24:32;;;;;;;858.80;84.40;;;;;;;;;;4763581;29;20043;-84
2024/01/08 12:27:06;;;;;;;868.75;84.30;;;;;;;;;;4841996;28;20116;-84
2024/01/08 12:29:39;;;;;;;841.13;83.68;;;;;;;;;;4957200;28;20029;-85
2024/01/08 12:32:08;;;;;;;874.72;83.47;;;;;;;;;;4951857;28;20059;-84
2024/01/08 12:34:37;;;;;;;800.10;76.70;;;;;;;;;;4926456;28;20044;-86
2024/01/08 12:37:06;;;;;;;841.35;80.95;;;;;;;;;;4961462;28;20117;-85
2024/01/08 12:39:33;;;;;;;866.35;84.43;;;;;;;;;;4933683;28;20052;-85
2024/01/08 12:42:02;;;;;;;866.53;83.25;;;;;;;;;;4945390;28;20095;-85
2024/01/08 12:44:29;;;;;;;858.67;82.55;;;;;;;;;;4956177;28;20138;-85
2024/01/08 12:46:56;;;;;;;851.88;83.25;;;;;;;;;;4955182;28;21181;-85
2024/01/08 12:49:24;;;;;;;855.78;89.22;;;;;;;;;;4963880;28;21093;-85
2024/01/08 12:51:52;;;;;;;849.25;80.93;;;;;;;;;;4945339;28;20115;-85
2024/01/08 12:54:19;;;;;;;829.42;84.70;;;;;;;;;;4958483;28;20879;-84
2024/01/08 12:56:46;;;;;;;840.35;87.63;;;;;;;;;;4944444;28;20052;-85
2024/01/08 12:59:13;;;;;;;910.83;114.75;;;;;;;;;;4953436;28;20037;-85
2024/01/08 13:01:43;;;;;;;876.17;106.25;;;;;;;;;;4953738;28;20152;-85
2024/01/08 13:04:12;;;;;;;835.50;81.60;;;;;;;;;;4950805;28;20044;-85
2024/01/08 13:06:40;;;;;;;750.95;72.70;;;;;;;;;;4945474;28;21071;-84
2024/01/08 13:09:07;;;;;;;870.28;86.53;;;;;;;;;;4960683;28;20960;-85
2024/01/08 13:11:35;;;;;;;877.38;89.85;;;;;;;;;;4934504;28;20029;-84
2024/01/08 13:14:04;;;;;;;878.58;86.35;;;;;;;;;;4938267;28;20033;-85
2024/01/08 13:16:31;;;;;;;851.78;82.63;;;;;;;;;;4950579;28;20041;-84
2024/01/08 13:18:57;;;;;;;817.42;78.93;;;;;;;;;;4952995;28;20040;-84
2024/01/08 13:21:24;;;;;;;901.03;85.97;;;;;;;;;;4923297;28;20029;-85
2024/01/08 13:23:51;;;;;;;852.35;82.78;;;;;;;;;;4953358;28;20033;-84
2024/01/08 13:26:18;;;;;;;842.55;81.85;;;;;;;;;;4951401;28;20895;-84
2024/01/08 13:28:45;;;;;;;892.97;87.72;;;;;;;;;;4958462;28;20172;-84
2024/01/08 13:31:12;;;;;;;857.75;81.82;;;;;;;;;;4930205;28;20857;-85
2024/01/08 13:33:39;;;;;;;860.97;83.15;;;;;;;;;;4936945;28;20139;-84
2024/01/08 13:36:07;;;;;;;881.35;83.57;;;;;;;;;;4945669;28;20051;-85
2024/01/08 13:38:33;;;;;;;833.08;80.57;;;;;;;;;;4951739;28;21035;-85
2024/01/08 13:41:00;;;;;;;848.90;80.00;;;;;;;;;;4956895;28;20041;-84
2024/01/08 13:43:28;;;;;;;858.60;85.03;;;;;;;;;;4952373;28;20045;-85
2024/01/08 13:45:55;;;;;;;842.22;79.90;;;;;;;;;;4954819;28;20080;-84
2024/01/08 13:48:23;;;;;;;825.53;78.22;;;;;;;;;;4953866;28;20043;-85
2024/01/08 13:50:54;;;;;;;833.28;83.95;;;;;;;;;;4947162;28;20049;-85
2024/01/08 13:53:21;;;;;;;872.95;87.65;;;;;;;;;;4937758;28;21156;-84
2024/01/08 13:55:48;;;;;;;843.35;85.50;;;;;;;;;;4960295;28;20044;-85
2024/01/08 13:58:14;;;;;;;847.80;79.88;;;;;;;;;;4948827;28;20036;-84
2024/01/08 14:00:41;;;;;;;851.95;81.60;;;;;;;;;;4956291;28;20063;-84
2024/01/08 14:03:08;;;;;;;872.35;86.30;;;;;;;;;;4938064;28;21102;-85
2024/01/08 14:05:36;;;;;;;863.08;82.50;;;;;;;;;;4951770;28;20044;-84
2024/01/08 14:08:03;;;;;;;873.50;87.07;;;;;;;;;;4943970;28;20036;-85
2024/01/08 14:10:30;;;;;;;817.40;76.85;;;;;;;;;;4957585;28;20107;-84
2024/01/08 14:12:57;;;;;;;792.75;74.88;;;;;;;;;;4962649;28;21133;-85